sensor_id;sensor_type;location;lat;lon;timestamp;pressure;altitude;pressure_sealevel;temperature;humidity
46836;BME280;32573;51.290;6.926;2023-04-25T00:01:16;99593.31;;;7.15;100.00
46836;BME280;32573;51.290;6.926;2023-04-25T00:03:47;99583.84;;;7.17;100.00
46836;BME280;32573;51.290;6.926;2023-04-25T00:06:19;99593.47;;;7.20;100.00
46836;BME280;32573;51.290;6.926;2023-04-25T00:08:48;99590.84;;;7.20;100.00
46836;BME280;32573;51.290;6.926;2023-04-25T00:11:19;99598.66;;;7.20;100.00
46836;BME280;32573;51.290;6.926;2023-04-25T00:13:48;99593.47;;;7.20;100.00
46836;BME280;32573;51.290;6.926;2023-04-25T00:16:20;99595.22;;;7.21;100.00
46836;BME280;32573;51.290;6.926;2023-04-25T00:18:49;99601.34;;;7.23;100.00
46836;BME280;32573;51.290;6.926;2023-04-25T00:21:21;99592.59;;;7.21;100.00
46836;BME280;32573;51.290;6.926;2023-04-25T00:23:52;99590.88;;;7.21;100.00
46836;BME280;32573;51.290;6.926;2023-04-25T00:26:21;99590.88;;;7.21;100.00
46836;BME280;32573;51.290;6.926;2023-04-25T00:28:51;99595.22;;;7.21;100.00
46836;BME280;32573;51.290;6.926;2023-04-25T00:31:26;99598.69;;;7.21;100.00
46836;BME280;32573;51.290;6.926;2023-04-25T00:33:59;99598.69;;;7.21;100.00
46836;BME280;32573;51.290;6.926;2023-04-25T00:36:28;99592.66;;;7.22;100.00
46836;BME280;32573;51.290;6.926;2023-04-25T00:38:58;99594.44;;;7.23;100.00
46836;BME280;32573;51.290;6.926;2023-04-25T00:41:27;99590.06;;;7.22;100.00
46836;BME280;32573;51.290;6.926;2023-04-25T00:43:59;99589.22;;;7.23;100.00
46836;BME280;32573;51.290;6.926;2023-04-25T00:46:32;99591.88;;;7.25;100.00
46836;BME280;32573;51.290;6.926;2023-04-25T00:49:01;99593.63;;;7.26;100.00
46836;BME280;32573;51.290;6.926;2023-04-25T00:51:30;99597.97;;;7.25;100.00
46836;BME280;32573;51.290;6.926;2023-04-25T00:54:04;99592.69;;;7.24;100.00
46836;BME280;32573;51.290;6.926;2023-04-25T00:56:36;99597.91;;;7.24;100.00
46836;BME280;32573;51.290;6.926;2023-04-25T00:59:05;99591.88;;;7.25;100.00
46836;BME280;32573;51.290;6.926;2023-04-25T01:01:37;99591.88;;;7.25;100.00
46836;BME280;32573;51.290;6.926;2023-04-25T01:04:07;99588.44;;;7.26;100.00
46836;BME280;32573;51.290;6.926;2023-04-25T01:06:36;99589.28;;;7.25;100.00
46836;BME280;32573;51.290;6.926;2023-04-25T01:09:08;99597.97;;;7.25;100.00
46836;BME280;32573;51.290;6.926;2023-04-25T01:11:39;99591.88;;;7.25;100.00
46836;BME280;32573;51.290;6.926;2023-04-25T01:14:08;99588.41;;;7.24;100.00
46836;BME280;32573;51.290;6.926;2023-04-25T01:16:39;99595.31;;;7.24;100.00
46836;BME280;32573;51.290;6.926;2023-04-25T01:19:10;99590.94;;;7.23;100.00
46836;BME280;32573;51.290;6.926;2023-04-25T01:21:42;99597.00;;;7.22;100.00
46836;BME280;32573;51.290;6.926;2023-04-25T01:24:13;99594.34;;;7.20;100.00
46836;BME280;32573;51.290;6.926;2023-04-25T01:26:43;99600.41;;;7.21;100.00
46836;BME280;32573;51.290;6.926;2023-04-25T01:29:22;99598.66;;;7.20;100.00
46836;BME280;32573;51.290;6.926;2023-04-25T01:31:51;99603.00;;;7.19;100.00
46836;BME280;32573;51.290;6.926;2023-04-25T01:34:21;99596.94;;;7.20;100.00
46836;BME280;32573;51.290;6.926;2023-04-25T01:36:53;99603.00;;;7.19;100.00
46836;BME280;32573;51.290;6.926;2023-04-25T01:39:25;99600.41;;;7.21;100.00
46836;BME280;32573;51.290;6.926;2023-04-25T01:41:54;99601.28;;;7.21;100.00
46836;BME280;32573;51.290;6.926;2023-04-25T01:44:26;99606.50;;;7.21;100.00
46836;BME280;32573;51.290;6.926;2023-04-25T01:46:55;99609.16;;;7.23;100.00
46836;BME280;32573;51.290;6.926;2023-04-25T01:49:25;99616.97;;;7.23;100.00
46836;BME280;32573;51.290;6.926;2023-04-25T01:51:57;99606.47;;;7.20;100.00
46836;BME280;32573;51.290;6.926;2023-04-25T01:54:26;99609.94;;;7.20;100.00
46836;BME280;32573;51.290;6.926;2023-04-25T01:56:58;99616.03;;;7.21;100.00
46836;BME280;32573;51.290;6.926;2023-04-25T01:59:32;99623.91;;;7.22;100.00
46836;BME280;32573;51.290;6.926;2023-04-25T02:02:27;99626.44;;;7.21;100.00
46836;BME280;32573;51.290;6.926;2023-04-25T02:04:56;99625.56;;;7.20;100.00
46836;BME280;32573;51.290;6.926;2023-04-25T02:07:28;99627.28;;;7.20;100.00
46836;BME280;32573;51.290;6.926;2023-04-25T02:10:04;99629.88;;;7.20;100.00
46836;BME280;32573;51.290;6.926;2023-04-25T02:13:05;99631.56;;;7.18;100.00
46836;BME280;32573;51.290;6.926;2023-04-25T02:15:54;99629.81;;;7.17;100.00
46836;BME280;32573;51.290;6.926;2023-04-25T02:18:25;99628.00;;;7.16;100.00
46836;BME280;32573;51.290;6.926;2023-04-25T02:20:54;99628.00;;;7.16;100.00
46836;BME280;32573;51.290;6.926;2023-04-25T02:23:24;99629.81;;;7.17;100.00
46836;BME280;32573;51.290;6.926;2023-04-25T02:25:53;99635.00;;;7.17;100.00
46836;BME280;32573;51.290;6.926;2023-04-25T02:28:23;99633.22;;;7.16;100.00
46836;BME280;32573;51.290;6.926;2023-04-25T02:30:52;99632.41;;;7.17;100.00
46836;BME280;32573;51.290;6.926;2023-04-25T02:33:21;99637.53;;;7.15;100.00
46836;BME280;32573;51.290;6.926;2023-04-25T02:35:49;99633.22;;;7.16;100.00
46836;BME280;32573;51.290;6.926;2023-04-25T02:38:21;99634.06;;;7.15;100.00
46836;BME280;32573;51.290;6.926;2023-04-25T02:40:58;99639.31;;;7.16;100.00
46836;BME280;32573;51.290;6.926;2023-04-25T02:43:27;99631.50;;;7.16;100.00
46836;BME280;32573;51.290;6.926;2023-04-25T02:45:56;99640.22;;;7.17;100.00
46836;BME280;32573;51.290;6.926;2023-04-25T02:48:27;99642.81;;;7.17;100.00
46836;BME280;32573;51.290;6.926;2023-04-25T02:50:56;99633.22;;;7.16;100.00
46836;BME280;32573;51.290;6.926;2023-04-25T02:53:25;99630.69;;;7.17;100.00
46836;BME280;32573;51.290;6.926;2023-04-25T02:55:54;99639.34;;;7.18;100.00
46836;BME280;32573;51.290;6.926;2023-04-25T02:58:27;99631.63;;;7.19;100.00
46836;BME280;32573;51.290;6.926;2023-04-25T03:00:59;99629.88;;;7.20;100.00
46836;BME280;32573;51.290;6.926;2023-04-25T03:03:29;99626.41;;;7.19;100.00
46836;BME280;32573;51.290;6.926;2023-04-25T03:05:58;99626.34;;;7.18;100.00
46836;BME280;32573;51.290;6.926;2023-04-25T03:08:32;99628.00;;;7.16;100.00
46836;BME280;32573;51.290;6.926;2023-04-25T03:11:02;99638.41;;;7.16;100.00
46836;BME280;32573;51.290;6.926;2023-04-25T03:13:35;99634.88;;;7.13;100.00
46836;BME280;32573;51.290;6.926;2023-04-25T03:16:08;99634.88;;;7.13;100.00
46836;BME280;32573;51.290;6.926;2023-04-25T03:18:37;99636.56;;;7.11;100.00
46836;BME280;32573;51.290;6.926;2023-04-25T03:21:06;99632.19;;;7.10;100.00
46836;BME280;32573;51.290;6.926;2023-04-25T03:23:35;99646.06;;;7.11;100.00
46836;BME280;32573;51.290;6.926;2023-04-25T03:26:10;99647.78;;;7.10;100.00
46836;BME280;32573;51.290;6.926;2023-04-25T03:28:47;99642.59;;;7.10;100.00
46836;BME280;32573;51.290;6.926;2023-04-25T03:31:20;99643.44;;;7.09;100.00
46836;BME280;32573;51.290;6.926;2023-04-25T03:33:49;99645.09;;;7.07;100.00
46836;BME280;32573;51.290;6.926;2023-04-25T03:36:24;99639.91;;;7.07;100.00
46836;BME280;32573;51.290;6.926;2023-04-25T03:38:53;99638.88;;;7.04;100.00
46836;BME280;32573;51.290;6.926;2023-04-25T03:41:22;99646.66;;;7.02;100.00
46836;BME280;32573;51.290;6.926;2023-04-25T03:44:01;99644.88;;;7.01;100.00
46836;BME280;32573;51.290;6.926;2023-04-25T03:46:29;99645.78;;;7.02;100.00
46836;BME280;32573;51.290;6.926;2023-04-25T03:49:00;99645.72;;;7.00;100.00
46836;BME280;32573;51.290;6.926;2023-04-25T03:51:49;99658.63;;;6.97;100.00
46836;BME280;32573;51.290;6.926;2023-04-25T03:54:17;99653.38;;;6.96;100.00
46836;BME280;32573;51.290;6.926;2023-04-25T03:56:54;99653.34;;;6.94;100.00
46836;BME280;32573;51.290;6.926;2023-04-25T03:59:28;99655.94;;;6.94;100.00
46836;BME280;32573;51.290;6.926;2023-04-25T04:01:58;99656.75;;;6.93;100.00
46836;BME280;32573;51.290;6.926;2023-04-25T04:04:27;99658.41;;;6.91;100.00
46836;BME280;32573;51.290;6.926;2023-04-25T04:06:56;99658.41;;;6.91;100.00
46836;BME280;32573;51.290;6.926;2023-04-25T04:09:28;99662.69;;;6.89;100.00
46836;BME280;32573;51.290;6.926;2023-04-25T04:11:59;99671.31;;;6.88;100.00
46836;BME280;32573;51.290;6.926;2023-04-25T04:14:32;99671.28;;;6.86;100.00
46836;BME280;32573;51.290;6.926;2023-04-25T04:17:04;99669.50;;;6.85;100.00
46836;BME280;32573;51.290;6.926;2023-04-25T04:19:34;99674.75;;;6.87;100.00
46836;BME280;32573;51.290;6.926;2023-04-25T04:22:09;99668.63;;;6.85;100.00
46836;BME280;32573;51.290;6.926;2023-04-25T04:24:38;99665.94;;;6.83;100.00
46836;BME280;32573;51.290;6.926;2023-04-25T04:27:08;99669.41;;;6.82;100.00
46836;BME280;32573;51.290;6.926;2023-04-25T04:29:46;99665.84;;;6.80;100.00
46836;BME280;32573;51.290;6.926;2023-04-25T04:32:35;99674.50;;;6.79;100.00
46836;BME280;32573;51.290;6.926;2023-04-25T04:35:07;99669.22;;;6.78;100.00
46836;BME280;32573;51.290;6.926;2023-04-25T04:37:37;99671.75;;;6.75;100.00
46836;BME280;32573;51.290;6.926;2023-04-25T04:40:09;99675.16;;;6.74;100.00
46836;BME280;32573;51.290;6.926;2023-04-25T04:43:02;99681.13;;;6.71;100.00
46836;BME280;32573;51.290;6.926;2023-04-25T04:46:00;99687.16;;;6.70;100.00
46836;BME280;32573;51.290;6.926;2023-04-25T04:48:50;99698.41;;;6.69;100.00
46836;BME280;32573;51.290;6.926;2023-04-25T04:51:50;99700.06;;;6.67;100.00
46836;BME280;32573;51.290;6.926;2023-04-25T04:54:48;99705.22;;;6.65;100.00
46836;BME280;32573;51.290;6.926;2023-04-25T04:57:35;99702.53;;;6.64;100.00
46836;BME280;32573;51.290;6.926;2023-04-25T05:00:29;99705.13;;;6.64;100.00
46836;BME280;32573;51.290;6.926;2023-04-25T05:03:21;99713.00;;;6.65;100.00
46836;BME280;32573;51.290;6.926;2023-04-25T05:06:09;99712.19;;;6.66;100.00
46836;BME280;32573;51.290;6.926;2023-04-25T05:08:59;99710.47;;;6.67;100.00
46836;BME280;32573;51.290;6.926;2023-04-25T05:12:01;99721.75;;;6.67;100.00
46836;BME280;32573;51.290;6.926;2023-04-25T05:14:47;99721.75;;;6.67;100.00
46836;BME280;32573;51.290;6.926;2023-04-25T05:17:34;99726.94;;;6.67;100.00
46836;BME280;32573;51.290;6.926;2023-04-25T05:20:27;99728.59;;;6.65;100.00
46836;BME280;32573;51.290;6.926;2023-04-25T05:23:14;99734.66;;;6.64;100.00
46836;BME280;32573;51.290;6.926;2023-04-25T05:26:28;99736.34;;;6.64;100.00
46836;BME280;32573;51.290;6.926;2023-04-25T05:29:23;99737.25;;;6.64;100.00
46836;BME280;32573;51.290;6.926;2023-04-25T05:32:22;99741.50;;;6.62;100.00
46836;BME280;32573;51.290;6.926;2023-04-25T05:34:56;99744.09;;;6.62;100.00
46836;BME280;32573;51.290;6.926;2023-04-25T05:37:29;99752.72;;;6.61;100.00
46836;BME280;32573;51.290;6.926;2023-04-25T05:40:10;99746.69;;;6.62;100.00
46836;BME280;32573;51.290;6.926;2023-04-25T05:42:42;99745.88;;;6.63;100.00
46836;BME280;32573;51.290;6.926;2023-04-25T05:45:30;99752.84;;;6.64;100.00
46836;BME280;32573;51.290;6.926;2023-04-25T05:48:04;99758.06;;;6.64;100.00
46836;BME280;32573;51.290;6.926;2023-04-25T05:51:14;99763.19;;;6.63;100.00
46836;BME280;32573;51.290;6.926;2023-04-25T05:53:58;99766.66;;;6.63;100.00
46836;BME280;32573;51.290;6.926;2023-04-25T05:56:27;99760.59;;;6.63;100.00
46836;BME280;32573;51.290;6.926;2023-04-25T05:58:56;99761.47;;;6.63;100.00
46836;BME280;32573;51.290;6.926;2023-04-25T06:01:26;99765.00;;;6.65;100.00
46836;BME280;32573;51.290;6.926;2023-04-25T06:03:55;99774.72;;;6.69;100.00
46836;BME280;32573;51.290;6.926;2023-04-25T06:06:24;99768.66;;;6.70;100.00
46836;BME280;32573;51.290;6.926;2023-04-25T06:08:54;99770.47;;;6.72;100.00
46836;BME280;32573;51.290;6.926;2023-04-25T06:11:24;99770.56;;;6.75;100.00
46836;BME280;32573;51.290;6.926;2023-04-25T06:13:53;99769.78;;;6.77;100.00
46836;BME280;32573;51.290;6.926;2023-04-25T06:16:22;99774.25;;;6.81;100.00
46836;BME280;32573;51.290;6.926;2023-04-25T06:18:53;99772.72;;;6.86;100.00
46836;BME280;32573;51.290;6.926;2023-04-25T06:21:21;99773.72;;;6.90;100.00
46836;BME280;32573;51.290;6.926;2023-04-25T06:23:51;99775.53;;;6.93;100.00
46836;BME280;32573;51.290;6.926;2023-04-25T06:26:24;99779.13;;;6.96;100.00
46836;BME280;32573;51.290;6.926;2023-04-25T06:28:53;99780.91;;;6.97;100.00
46836;BME280;32573;51.290;6.926;2023-04-25T06:31:21;99785.28;;;6.98;100.00
46836;BME280;32573;51.290;6.926;2023-04-25T06:33:51;99793.16;;;7.00;100.00
46836;BME280;32573;51.290;6.926;2023-04-25T06:36:24;99785.34;;;7.00;100.00
46836;BME280;32573;51.290;6.926;2023-04-25T06:39:00;99787.94;;;7.00;100.00
46836;BME280;32573;51.290;6.926;2023-04-25T06:41:31;99788.88;;;7.02;100.00
46836;BME280;32573;51.290;6.926;2023-04-25T06:44:02;99795.84;;;7.03;100.00
46836;BME280;32573;51.290;6.926;2023-04-25T06:46:49;99790.72;;;7.04;100.00
46836;BME280;32573;51.290;6.926;2023-04-25T06:49:18;99793.34;;;7.06;100.00
46836;BME280;32573;51.290;6.926;2023-04-25T06:51:47;99798.63;;;7.07;100.00
46836;BME280;32573;51.290;6.926;2023-04-25T06:54:16;99796.91;;;7.08;100.00
46836;BME280;32573;51.290;6.926;2023-04-25T06:56:56;99807.38;;;7.09;100.00
46836;BME280;32573;51.290;6.926;2023-04-25T06:59:27;99806.50;;;7.09;100.00
46836;BME280;32573;51.290;6.926;2023-04-25T07:01:56;99806.53;;;7.10;100.00
46836;BME280;32573;51.290;6.926;2023-04-25T07:04:29;99818.00;;;7.16;100.00
46836;BME280;32573;51.290;6.926;2023-04-25T07:06:59;99819.03;;;7.21;100.00
46836;BME280;32573;51.290;6.926;2023-04-25T07:09:41;99815.72;;;7.25;100.00
46836;BME280;32573;51.290;6.926;2023-04-25T07:12:11;99822.06;;;7.33;100.00
46836;BME280;32573;51.290;6.926;2023-04-25T07:14:44;99813.66;;;7.40;100.00
46836;BME280;32573;51.290;6.926;2023-04-25T07:17:15;99813.81;;;7.45;100.00
46836;BME280;32573;51.290;6.926;2023-04-25T07:19:49;99821.81;;;7.51;100.00
46836;BME280;32573;51.290;6.926;2023-04-25T07:22:20;99829.81;;;7.55;100.00
46836;BME280;32573;51.290;6.926;2023-04-25T07:24:49;99828.97;;;7.56;100.00
46836;BME280;32573;51.290;6.926;2023-04-25T07:27:24;99835.06;;;7.57;100.00
46836;BME280;32573;51.290;6.926;2023-04-25T07:30:07;99828.97;;;7.56;100.00
46836;BME280;32573;51.290;6.926;2023-04-25T07:32:38;99842.03;;;7.58;100.00
46836;BME280;32573;51.290;6.926;2023-04-25T07:35:08;99840.28;;;7.57;100.00
46836;BME280;32573;51.290;6.926;2023-04-25T07:37:37;99841.06;;;7.54;100.00
46836;BME280;32573;51.290;6.926;2023-04-25T07:40:13;99841.06;;;7.54;100.00
46836;BME280;32573;51.290;6.926;2023-04-25T07:42:53;99848.00;;;7.54;100.00
46836;BME280;32573;51.290;6.926;2023-04-25T07:45:29;99835.00;;;7.55;100.00
46836;BME280;32573;51.290;6.926;2023-04-25T07:47:59;99844.59;;;7.56;100.00
46836;BME280;32573;51.290;6.926;2023-04-25T07:50:29;99847.31;;;7.60;100.00
46836;BME280;32573;51.290;6.926;2023-04-25T07:53:03;99850.00;;;7.63;100.00
46836;BME280;32573;51.290;6.926;2023-04-25T07:55:38;99856.97;;;7.64;100.00
46836;BME280;32573;51.290;6.926;2023-04-25T07:58:16;99857.13;;;7.67;100.00
46836;BME280;32573;51.290;6.926;2023-04-25T08:00:52;99866.78;;;7.71;100.00
46836;BME280;32573;51.290;6.926;2023-04-25T08:03:39;99860.00;;;7.76;100.00
46836;BME280;32573;51.290;6.926;2023-04-25T08:06:15;99870.59;;;7.81;100.00
46836;BME280;32573;51.290;6.926;2023-04-25T08:08:55;99870.81;;;7.87;100.00
46836;BME280;32573;51.290;6.926;2023-04-25T08:11:31;99867.59;;;7.94;100.00
46836;BME280;32573;51.290;6.926;2023-04-25T08:14:01;99876.44;;;7.99;100.00
46836;BME280;32573;51.290;6.926;2023-04-25T08:16:30;99871.34;;;8.04;100.00
46836;BME280;32573;51.290;6.926;2023-04-25T08:18:59;99876.78;;;8.10;100.00
46836;BME280;32573;51.290;6.926;2023-04-25T08:21:28;99881.41;;;8.18;100.00
46836;BME280;32573;51.290;6.926;2023-04-25T08:23:59;99886.88;;;8.26;100.00
46836;BME280;32573;51.290;6.926;2023-04-25T08:26:33;99887.06;;;8.32;100.00
46836;BME280;32573;51.290;6.926;2023-04-25T08:29:06;99894.13;;;8.35;100.00
46836;BME280;32573;51.290;6.926;2023-04-25T08:31:38;99902.03;;;8.38;100.00
46836;BME280;32573;51.290;6.926;2023-04-25T08:34:08;99898.66;;;8.40;100.00
46836;BME280;32573;51.290;6.926;2023-04-25T08:36:45;99899.59;;;8.42;100.00
46836;BME280;32573;51.290;6.926;2023-04-25T08:39:20;99910.13;;;8.46;100.00
46836;BME280;32573;51.290;6.926;2023-04-25T08:42:07;99913.78;;;8.51;100.00
46836;BME280;32573;51.290;6.926;2023-04-25T08:44:37;99916.63;;;8.58;100.00
46836;BME280;32573;51.290;6.926;2023-04-25T08:47:06;99918.50;;;8.62;100.00
46836;BME280;32573;51.290;6.926;2023-04-25T08:49:45;99918.56;;;8.64;100.00
46836;BME280;32573;51.290;6.926;2023-04-25T08:52:17;99921.16;;;8.64;100.00
46836;BME280;32573;51.290;6.926;2023-04-25T08:54:51;99926.25;;;8.61;100.00
46836;BME280;32573;51.290;6.926;2023-04-25T08:57:21;99925.38;;;8.60;100.00
46836;BME280;32573;51.290;6.926;2023-04-25T08:59:52;99936.69;;;8.61;100.00
46836;BME280;32573;51.290;6.926;2023-04-25T09:02:23;99938.44;;;8.60;100.00
46836;BME280;32573;51.290;6.926;2023-04-25T09:04:53;99937.56;;;8.60;100.00
46836;BME280;32573;51.290;6.926;2023-04-25T09:07:23;99944.53;;;8.61;100.00
46836;BME280;32573;51.290;6.926;2023-04-25T09:09:54;99944.75;;;8.67;100.00
46836;BME280;32573;51.290;6.926;2023-04-25T09:12:23;99945.78;;;8.72;100.00
46836;BME280;32573;51.290;6.926;2023-04-25T09:15:05;99945.84;;;8.75;100.00
46836;BME280;32573;51.290;6.926;2023-04-25T09:17:55;99945.94;;;8.78;100.00
46836;BME280;32573;51.290;6.926;2023-04-25T09:20:28;99948.72;;;8.83;100.00
46836;BME280;32573;51.290;6.926;2023-04-25T09:23:02;99955.88;;;8.89;100.00
46836;BME280;32573;51.290;6.926;2023-04-25T09:25:36;99956.09;;;8.96;100.00
46836;BME280;32573;51.290;6.926;2023-04-25T09:28:08;99968.47;;;9.03;100.00
46836;BME280;32573;51.290;6.926;2023-04-25T09:30:38;99966.00;;;9.08;100.00
46836;BME280;32573;51.290;6.926;2023-04-25T09:33:12;99969.63;;;9.12;100.00
46836;BME280;32573;51.290;6.926;2023-04-25T09:35:46;99964.34;;;9.10;100.00
46836;BME280;32573;51.290;6.926;2023-04-25T09:38:30;99967.00;;;9.12;100.00
46836;BME280;32573;51.290;6.926;2023-04-25T09:41:10;99974.78;;;9.10;100.00
46836;BME280;32573;51.290;6.926;2023-04-25T09:43:45;99984.25;;;9.06;100.00
46836;BME280;32573;51.290;6.926;2023-04-25T09:46:16;99986.72;;;9.02;100.00
46836;BME280;32573;51.290;6.926;2023-04-25T09:48:53;99976.22;;;9.00;100.00
46836;BME280;32573;51.290;6.926;2023-04-25T09:51:29;99986.88;;;9.06;100.00
46836;BME280;32573;51.290;6.926;2023-04-25T09:53:59;99981.00;;;9.14;100.00
46836;BME280;32573;51.290;6.926;2023-04-25T09:56:37;99991.75;;;9.24;100.00
46836;BME280;32573;51.290;6.926;2023-04-25T09:59:08;99984.22;;;9.34;100.00
46836;BME280;32573;51.290;6.926;2023-04-25T10:01:40;99982.78;;;9.45;100.00
46836;BME280;32573;51.290;6.926;2023-04-25T10:04:24;99981.38;;;9.56;100.00
46836;BME280;32573;51.290;6.926;2023-04-25T10:07:16;99993.66;;;9.59;100.00
46836;BME280;32573;51.290;6.926;2023-04-25T10:09:48;100004.13;;;9.60;100.00
46836;BME280;32573;51.290;6.926;2023-04-25T10:12:17;100007.69;;;9.62;100.00
46836;BME280;32573;51.290;6.926;2023-04-25T10:14:47;100000.69;;;9.61;100.00
46836;BME280;32573;51.290;6.926;2023-04-25T10:17:17;100010.28;;;9.62;100.00
46836;BME280;32573;51.290;6.926;2023-04-25T10:19:48;100011.16;;;9.61;100.00
46836;BME280;32573;51.290;6.926;2023-04-25T10:22:22;100011.22;;;9.64;100.00
46836;BME280;32573;51.290;6.926;2023-04-25T10:24:52;100012.91;;;9.62;100.00
46836;BME280;32573;51.290;6.926;2023-04-25T10:27:21;100014.66;;;9.63;100.00
46836;BME280;32573;51.290;6.926;2023-04-25T10:30:00;100016.44;;;9.64;100.00
46836;BME280;32573;51.290;6.926;2023-04-25T10:32:34;100024.31;;;9.66;100.00
46836;BME280;32573;51.290;6.926;2023-04-25T10:35:11;100027.06;;;9.70;100.00
46836;BME280;32573;51.290;6.926;2023-04-25T10:37:58;100022.84;;;9.74;100.00
46836;BME280;32573;51.290;6.926;2023-04-25T10:40:27;100021.25;;;9.79;100.00
46836;BME280;32573;51.290;6.926;2023-04-25T10:43:39;100024.06;;;9.87;100.00
46836;BME280;32573;51.290;6.926;2023-04-25T10:46:19;100016.44;;;9.94;100.00
46836;BME280;32573;51.290;6.926;2023-04-25T10:48:49;100016.59;;;10.01;100.00
46836;BME280;32573;51.290;6.926;2023-04-25T10:51:20;100010.75;;;10.09;100.00
46836;BME280;32573;51.290;6.926;2023-04-25T10:53:59;100021.34;;;10.15;100.00
46836;BME280;32573;51.290;6.926;2023-04-25T10:56:29;100013.78;;;10.25;100.00
46836;BME280;32573;51.290;6.926;2023-04-25T10:59:10;100021.72;;;10.28;100.00
46836;BME280;32573;51.290;6.926;2023-04-25T11:01:40;100023.28;;;10.23;100.00
46836;BME280;32573;51.290;6.926;2023-04-25T11:04:19;100023.16;;;10.17;100.00
46836;BME280;32573;51.290;6.926;2023-04-25T11:07:02;100019.59;;;10.14;100.00
46836;BME280;32573;51.290;6.926;2023-04-25T11:09:34;100015.19;;;10.12;100.00
46836;BME280;32573;51.290;6.926;2023-04-25T11:12:04;100013.41;;;10.11;100.00
46836;BME280;32573;51.290;6.926;2023-04-25T11:14:35;100014.31;;;10.13;100.00
46836;BME280;32573;51.290;6.926;2023-04-25T11:17:03;100009.22;;;10.18;100.00
46836;BME280;32573;51.290;6.926;2023-04-25T11:19:33;100010.28;;;10.24;100.00
46836;BME280;32573;51.290;6.926;2023-04-25T11:22:02;100018.47;;;10.36;100.00
46836;BME280;32573;51.290;6.926;2023-04-25T11:24:35;100006.47;;;10.45;100.00
46836;BME280;32573;51.290;6.926;2023-04-25T11:27:04;100008.34;;;10.49;100.00
46836;BME280;32573;51.290;6.926;2023-04-25T11:29:35;100014.53;;;10.52;100.00
46836;BME280;32573;51.290;6.926;2023-04-25T11:32:03;100014.56;;;10.54;100.00
46836;BME280;32573;51.290;6.926;2023-04-25T11:34:33;100025.84;;;10.51;100.00
46836;BME280;32573;51.290;6.926;2023-04-25T11:37:02;100026.53;;;10.46;100.00
46836;BME280;32573;51.290;6.926;2023-04-25T11:39:31;100043.78;;;10.38;100.00
46836;BME280;32573;51.290;6.926;2023-04-25T11:42:03;100037.31;;;10.25;100.00
46836;BME280;32573;51.290;6.926;2023-04-25T11:44:41;100035.28;;;10.14;100.00
46836;BME280;32573;51.290;6.926;2023-04-25T11:47:10;100037.69;;;10.07;100.00
46836;BME280;32573;51.290;6.926;2023-04-25T11:49:39;100028.78;;;10.00;100.00
46836;BME280;32573;51.290;6.926;2023-04-25T11:52:09;100033.94;;;9.97;100.00
46836;BME280;32573;51.290;6.926;2023-04-25T11:54:41;100039.91;;;9.93;100.00
46836;BME280;32573;51.290;6.926;2023-04-25T11:57:11;100046.84;;;9.91;100.00
46836;BME280;32573;51.290;6.926;2023-04-25T11:59:41;100053.91;;;9.93;100.00
46836;BME280;32573;51.290;6.926;2023-04-25T12:02:24;100054.91;;;9.99;100.00
46836;BME280;32573;51.290;6.926;2023-04-25T12:04:53;100057.63;;;10.03;100.00
46836;BME280;32573;51.290;6.926;2023-04-25T12:07:28;100050.72;;;10.05;100.00
46836;BME280;32573;51.290;6.926;2023-04-25T12:09:57;100056.00;;;10.07;100.00
46836;BME280;32573;51.290;6.926;2023-04-25T12:12:27;100067.34;;;10.07;100.00
46836;BME280;32573;51.290;6.926;2023-04-25T12:15:10;100075.19;;;10.07;100.00
46836;BME280;32573;51.290;6.926;2023-04-25T12:17:39;100066.47;;;10.07;100.00
46836;BME280;32573;51.290;6.926;2023-04-25T12:20:09;100075.25;;;10.09;100.00
46836;BME280;32573;51.290;6.926;2023-04-25T12:22:40;100081.28;;;10.06;100.00
46836;BME280;32573;51.290;6.926;2023-04-25T12:25:12;100081.84;;;9.96;100.00
46836;BME280;32573;51.290;6.926;2023-04-25T12:27:40;100085.13;;;9.89;100.00
46836;BME280;32573;51.290;6.926;2023-04-25T12:30:12;100094.59;;;9.85;100.00
46836;BME280;32573;51.290;6.926;2023-04-25T12:32:41;100096.97;;;9.78;100.00
46836;BME280;32573;51.290;6.926;2023-04-25T12:35:10;100107.25;;;9.71;100.00
46836;BME280;32573;51.290;6.926;2023-04-25T12:37:39;100099.22;;;9.65;100.00
46836;BME280;32573;51.290;6.926;2023-04-25T12:40:08;100111.31;;;9.62;100.00
46836;BME280;32573;51.290;6.926;2023-04-25T12:42:38;100107.78;;;9.60;100.00
46836;BME280;32573;51.290;6.926;2023-04-25T12:45:08;100093.84;;;9.61;100.00
46836;BME280;32573;51.290;6.926;2023-04-25T12:47:38;100100.16;;;9.67;100.00
46836;BME280;32573;51.290;6.926;2023-04-25T12:50:07;100096.84;;;9.73;100.00
46836;BME280;32573;51.290;6.926;2023-04-25T12:52:36;100097.13;;;9.82;100.00
46836;BME280;32573;51.290;6.926;2023-04-25T12:55:05;100094.72;;;9.90;100.00
46836;BME280;32573;51.290;6.926;2023-04-25T12:57:34;100094.94;;;9.96;100.00
46836;BME280;32573;51.290;6.926;2023-04-25T13:00:03;100083.78;;;10.03;100.00
46836;BME280;32573;51.290;6.926;2023-04-25T13:02:34;100083.16;;;10.12;100.00
46836;BME280;32573;51.290;6.926;2023-04-25T13:05:05;100079.91;;;10.21;100.00
46836;BME280;32573;51.290;6.926;2023-04-25T13:07:34;100082.81;;;10.30;100.00
46836;BME280;32573;51.290;6.926;2023-04-25T13:10:03;100080.53;;;10.42;100.00
46836;BME280;32573;51.290;6.926;2023-04-25T13:12:32;100086.25;;;10.59;100.00
46836;BME280;32573;51.290;6.926;2023-04-25T13:15:01;100078.91;;;10.79;100.00
46836;BME280;32573;51.290;6.926;2023-04-25T13:17:32;100080.41;;;11.04;100.00
46836;BME280;32573;51.290;6.926;2023-04-25T13:20:00;100078.06;;;11.16;100.00
46836;BME280;32573;51.290;6.926;2023-04-25T13:22:33;100082.50;;;11.19;100.00
46836;BME280;32573;51.290;6.926;2023-04-25T13:25:05;100078.25;;;11.24;100.00
46836;BME280;32573;51.290;6.926;2023-04-25T13:27:35;100077.66;;;11.36;100.00
46836;BME280;32573;51.290;6.926;2023-04-25T13:30:04;100076.22;;;11.50;100.00